Time;durP1;ratioP1;P1;durP2;ratioP2;P2;SDS_P1;SDS_P2;PMS_P1;PMS_P2;Temp;Humidity;BMP_temperature;BMP_pressure;BME280_temperature;BME280_humidity;BME280_pressure;Samples;Min_cycle;Max_cycle;Signal;HPM_P1;HPM_P2
2021/03/06 00:01:28;;;;;;;13.25;4.53;;;;;;;5.11;100.00;103562.38;5073469;28;20490;-63
2021/03/06 00:03:54;;;;;;;10.10;4.63;;;;;;;5.10;100.00;103560.66;5072997;28;20036;-64
2021/03/06 00:06:19;;;;;;;11.32;4.53;;;;;;;5.09;100.00;103564.34;5073101;28;20040;-65
2021/03/06 00:08:45;;;;;;;14.27;4.50;;;;;;;5.07;100.00;103560.94;5072896;28;20047;-63
2021/03/06 00:11:10;;;;;;;15.30;5.20;;;;;;;5.05;100.00;103562.94;5054896;28;20028;-63
2021/03/06 00:13:36;;;;;;;12.57;4.75;;;;;;;5.05;100.00;103557.50;5054740;28;20170;-65
2021/03/06 00:16:03;;;;;;;11.07;4.13;;;;;;;5.03;100.00;103561.31;5072861;28;20032;-65
2021/03/06 00:18:29;;;;;;;10.85;3.78;;;;;;;5.00;100.00;103570.59;5054955;28;20133;-64
2021/03/06 00:20:54;;;;;;;9.05;4.25;;;;;;;4.99;100.00;103568.88;5072772;28;20534;-67
2021/03/06 00:23:20;;;;;;;10.52;3.72;;;;;;;4.97;100.00;103565.47;5072682;28;20106;-64
2021/03/06 00:25:45;;;;;;;12.25;3.88;;;;;;;4.97;100.00;103573.59;5072700;28;20059;-68
2021/03/06 00:28:11;;;;;;;11.27;4.10;;;;;;;4.97;100.00;103567.31;5072668;28;20098;-64
2021/03/06 00:30:37;;;;;;;14.73;4.32;;;;;;;4.98;100.00;103572.59;5072593;28;20047;-64
2021/03/06 00:33:03;;;;;;;13.98;4.07;;;;;;;4.98;100.00;103569.03;5072566;28;20036;-66
2021/03/06 00:35:28;;;;;;;6.63;3.58;;;;;;;4.98;100.00;103569.88;5072557;28;20041;-66
2021/03/06 00:37:55;;;;;;;8.38;4.00;;;;;;;4.98;100.00;103567.16;5072501;28;20150;-65
2021/03/06 00:40:20;;;;;;;7.70;3.70;;;;;;;5.00;100.00;103565.19;5072575;28;20494;-63
2021/03/06 00:42:46;;;;;;;17.20;4.47;;;;;;;5.01;100.00;103566.03;5072310;28;20048;-64
2021/03/06 00:45:12;;;;;;;9.40;4.50;;;;;;;5.02;100.00;103568.59;5072414;28;20029;-64
2021/03/06 00:47:38;;;;;;;7.38;4.10;;;;;;;5.04;100.00;103565.78;5072217;28;20052;-64
2021/03/06 00:50:07;;;;;;;9.38;4.10;;;;;;;5.04;100.00;103571.19;5072250;28;20123;-64
2021/03/06 00:52:33;;;;;;;5.55;4.03;;;;;;;5.04;100.00;103566.63;5072066;28;20131;-63
2021/03/06 00:54:59;;;;;;;10.48;4.10;;;;;;;5.04;100.00;103558.50;5072030;28;20131;-62
2021/03/06 00:57:24;;;;;;;11.32;4.85;;;;;;;5.06;100.00;103561.94;5072240;28;20070;-62
2021/03/06 00:59:50;;;;;;;9.10;4.50;;;;;;;5.05;100.00;103562.94;5072087;28;20089;-65
2021/03/06 01:02:16;;;;;;;10.38;4.57;;;;;;;5.05;100.00;103560.22;5071903;28;20143;-65
2021/03/06 01:04:41;;;;;;;7.88;4.35;;;;;;;5.06;100.00;103559.22;5072052;28;20082;-64
2021/03/06 01:07:07;;;;;;;16.05;5.03;;;;;;;5.06;100.00;103553.81;5071991;28;20041;-63
2021/03/06 01:09:32;;;;;;;11.23;4.50;;;;;;;5.06;100.00;103553.81;5071650;28;20033;-64
2021/03/06 01:11:58;;;;;;;15.48;5.32;;;;;;;5.04;100.00;103549.53;5071934;28;20412;-66
2021/03/06 01:14:23;;;;;;;11.88;3.97;;;;;;;5.02;100.00;103546.94;5071760;28;20742;-63
2021/03/06 01:16:49;;;;;;;11.02;4.25;;;;;;;5.01;100.00;103550.63;5071711;28;20433;-64
2021/03/06 01:19:15;;;;;;;7.65;3.85;;;;;;;4.99;100.00;103552.63;5071666;28;20048;-65
2021/03/06 01:21:41;;;;;;;8.05;4.47;;;;;;;4.98;100.00;103545.50;5071701;28;20504;-65
2021/03/06 01:24:06;;;;;;;10.85;4.53;;;;;;;4.98;100.00;103550.06;5071552;28;20047;-63
2021/03/06 01:26:32;;;;;;;18.05;4.50;;;;;;;4.96;100.00;103536.66;5071592;28;20049;-64
2021/03/06 01:28:58;;;;;;;10.80;4.75;;;;;;;4.94;100.00;103535.09;5071822;28;20071;-64
2021/03/06 01:31:23;;;;;;;9.57;4.32;;;;;;;4.91;100.00;103549.78;5071510;28;20406;-65
2021/03/06 01:33:49;;;;;;;8.65;4.38;;;;;;;4.90;100.00;103541.78;5071216;28;20181;-63
2021/03/06 01:36:14;;;;;;;8.80;4.32;;;;;;;4.88;100.00;103541.94;5071316;28;20045;-65
2021/03/06 01:38:40;;;;;;;10.18;4.55;;;;;;;4.86;100.00;103535.81;5071383;28;20044;-62
2021/03/06 01:41:05;;;;;;;8.27;4.65;;;;;;;4.87;100.00;103532.09;5071513;28;20056;-66
2021/03/06 01:43:31;;;;;;;10.90;4.72;;;;;;;4.87;100.00;103536.66;5071183;28;20040;-63
2021/03/06 01:45:56;;;;;;;11.57;5.85;;;;;;;4.84;100.00;103532.34;5071287;28;20040;-63
2021/03/06 01:48:22;;;;;;;9.75;4.95;;;;;;;4.83;100.00;103533.34;5071020;28;20139;-65
2021/03/06 01:50:50;;;;;;;7.65;4.38;;;;;;;4.82;100.00;103528.94;5053123;28;20032;-65
2021/03/06 01:53:15;;;;;;;13.07;5.88;;;;;;;4.83;100.00;103541.47;5071017;28;20055;-64
2021/03/06 01:55:44;;;;;;;12.73;5.25;;;;;;;4.83;100.00;103536.91;5071068;28;20426;-66
2021/03/06 01:58:10;;;;;;;13.00;5.43;;;;;;;4.83;100.00;103536.91;5071027;28;20032;-63
2021/03/06 02:00:36;;;;;;;8.32;4.15;;;;;;;4.84;100.00;103538.63;5071089;28;20033;-63
2021/03/06 02:03:01;;;;;;;9.25;5.70;;;;;;;4.85;100.00;103532.22;5070960;28;20529;-67
2021/03/06 02:05:28;;;;;;;12.98;4.88;;;;;;;4.88;100.00;103544.63;5070831;28;20048;-63
2021/03/06 02:07:54;;;;;;;16.90;5.18;;;;;;;4.90;100.00;103531.81;5070979;28;20041;-65
2021/03/06 02:10:30;;;;;;;13.15;5.53;;;;;;;4.92;100.00;103537.94;5070963;28;20380;-64
2021/03/06 02:13:08;;;;;;;7.22;4.57;;;;;;;4.93;100.00;103531.53;5070797;28;20039;-63
2021/03/06 02:15:41;;;;;;;12.50;4.88;;;;;;;4.94;100.00;103533.25;5070845;28;20040;-65
2021/03/06 02:18:12;;;;;;;12.70;4.93;;;;;;;4.96;100.00;103535.81;5070940;28;20032;-65
2021/03/06 02:21:19;;;;;;;10.45;5.30;;;;;;;5.00;100.00;103538.09;5070655;28;20032;-63
2021/03/06 02:24:10;;;;;;;9.50;5.55;;;;;;;5.02;100.00;103536.09;4969626;28;20038;-66
2021/03/06 02:27:17;;;;;;;9.15;6.03;;;;;;;5.03;100.00;103532.41;5070809;28;20039;-65
2021/03/06 02:29:49;;;;;;;12.60;5.10;;;;;;;5.04;100.00;103534.13;5070692;28;20032;-63
2021/03/06 02:32:19;;;;;;;10.45;5.07;;;;;;;5.05;100.00;103533.13;5070616;28;20029;-63
2021/03/06 02:34:52;;;;;;;12.02;5.00;;;;;;;5.04;100.00;103534.13;5070627;28;20133;-63
2021/03/06 02:37:22;;;;;;;15.82;5.57;;;;;;;5.04;100.00;103531.41;5070684;28;20041;-64
2021/03/06 02:39:51;;;;;;;13.93;4.68;;;;;;;5.05;100.00;103530.44;5070670;28;20111;-64
2021/03/06 02:42:23;;;;;;;8.35;4.95;;;;;;;5.03;100.00;103521.59;5070543;28;20039;-65
2021/03/06 02:44:49;;;;;;;9.05;4.65;;;;;;;5.01;100.00;103520.84;5070556;28;20051;-62
2021/03/06 02:47:17;;;;;;;12.77;5.20;;;;;;;4.97;100.00;103522.13;5070477;28;20041;-63
2021/03/06 02:49:59;;;;;;;12.38;5.30;;;;;;;4.93;100.00;103520.69;5070389;28;20071;-63
2021/03/06 02:52:25;;;;;;;17.63;5.35;;;;;;;4.89;100.00;103518.41;5070441;28;20028;-64
2021/03/06 02:54:51;;;;;;;11.60;5.88;;;;;;;4.82;100.00;103512.69;5070334;28;20036;-62
2021/03/06 02:57:32;;;;;;;12.15;5.03;;;;;;;4.77;100.00;103509.53;5070496;28;20379;-64
2021/03/06 03:00:17;;;;;;;8.95;4.40;;;;;;;4.71;100.00;103510.97;5070406;28;20041;-64
2021/03/06 03:03:05;;;;;;;9.25;4.93;;;;;;;4.67;100.00;103514.06;5070636;28;20036;-65
2021/03/06 03:05:56;;;;;;;8.40;4.28;;;;;;;4.61;100.00;103514.63;5070383;28;20116;-64
2021/03/06 03:08:40;;;;;;;7.65;3.83;;;;;;;4.56;100.00;103506.06;5070499;28;20032;-65
2021/03/06 03:11:10;;;;;;;9.37;3.83;;;;;;;4.51;100.00;103499.22;5070334;28;20116;-65
2021/03/06 03:13:40;;;;;;;5.85;3.83;;;;;;;4.47;100.00;103497.75;5070138;28;20403;-64
2021/03/06 03:16:09;;;;;;;10.27;4.25;;;;;;;4.44;100.00;103498.03;5070362;28;20470;-65
2021/03/06 03:18:40;;;;;;;10.27;3.67;;;;;;;4.40;100.00;103491.19;5052198;28;20036;-64
2021/03/06 03:21:09;;;;;;;12.55;3.97;;;;;;;4.37;100.00;103496.03;5070324;28;20089;-63
2021/03/06 03:23:40;;;;;;;9.00;3.58;;;;;;;4.32;100.00;103488.28;5070356;28;20028;-63
2021/03/06 03:26:11;;;;;;;8.65;3.70;;;;;;;4.28;100.00;103489.56;5070265;28;20029;-64
2021/03/06 03:28:40;;;;;;;8.52;3.63;;;;;;;4.24;100.00;103491.69;5070285;28;20466;-64
2021/03/06 03:31:08;;;;;;;6.93;3.78;;;;;;;4.20;100.00;103494.81;5070156;28;20033;-65
2021/03/06 03:33:38;;;;;;;9.32;3.85;;;;;;;4.17;100.00;103495.09;5071376;28;20039;-63
2021/03/06 03:36:06;;;;;;;9.32;2.95;;;;;;;4.14;100.00;103495.31;5073387;28;20040;-63
2021/03/06 03:38:35;;;;;;;7.45;3.33;;;;;;;4.11;100.00;103501.00;5073550;28;20549;-65
2021/03/06 03:41:02;;;;;;;15.32;5.05;;;;;;;4.08;100.00;103504.00;5073548;28;20450;-63
2021/03/06 03:43:29;;;;;;;7.57;3.20;;;;;;;4.05;100.00;103501.56;5073335;28;20033;-65
2021/03/06 03:45:56;;;;;;;9.57;3.10;;;;;;;4.02;100.00;103499.13;5073518;28;20036;-65
2021/03/06 03:48:22;;;;;;;10.07;3.20;;;;;;;3.99;100.00;103496.66;5073321;28;20574;-69
2021/03/06 03:50:48;;;;;;;14.07;4.00;;;;;;;3.95;100.00;103496.06;5055458;28;20144;-66
2021/03/06 03:53:14;;;;;;;10.30;3.30;;;;;;;3.91;100.00;103500.91;5073204;28;20071;-65
2021/03/06 03:55:40;;;;;;;9.10;3.30;;;;;;;3.88;100.00;103494.91;5073305;28;20033;-66
2021/03/06 03:58:11;;;;;;;8.73;3.10;;;;;;;3.84;100.00;103505.13;5073325;28;20036;-67
2021/03/06 04:00:37;;;;;;;8.48;3.13;;;;;;;3.83;100.00;103508.84;5073386;28;20036;-66
2021/03/06 04:03:08;;;;;;;13.45;3.80;;;;;;;3.81;100.00;103508.09;5073230;28;20509;-66
2021/03/06 04:05:34;;;;;;;9.93;3.15;;;;;;;3.80;100.00;103514.47;5073326;28;20472;-66
2021/03/06 04:08:00;;;;;;;11.48;3.05;;;;;;;3.78;100.00;103500.25;5073086;28;20036;-66
2021/03/06 04:10:27;;;;;;;10.02;2.67;;;;;;;3.76;100.00;103506.78;5073085;28;20044;-67
2021/03/06 04:12:53;;;;;;;8.93;2.95;;;;;;;3.73;100.00;103507.91;5072969;28;20454;-65
2021/03/06 04:15:21;;;;;;;8.55;3.30;;;;;;;3.72;100.00;103506.19;5073025;28;20399;-66
2021/03/06 04:17:47;;;;;;;10.43;2.70;;;;;;;3.69;100.00;103500.19;5072922;28;20036;-66
2021/03/06 04:20:16;;;;;;;7.25;2.35;;;;;;;3.68;100.00;103503.88;5072800;28;20047;-68
2021/03/06 04:22:42;;;;;;;13.70;2.60;;;;;;;3.65;100.00;103498.75;5072806;28;20047;-66
2021/03/06 04:25:09;;;;;;;9.30;3.17;;;;;;;3.63;100.00;103494.31;5072731;28;20394;-67
2021/03/06 04:27:36;;;;;;;6.10;2.42;;;;;;;3.61;100.00;103498.13;5073022;28;20055;-66
2021/03/06 04:30:04;;;;;;;7.85;2.22;;;;;;;3.61;100.00;103498.13;5072735;28;20403;-65
2021/03/06 04:32:30;;;;;;;9.00;2.78;;;;;;;3.58;100.00;103501.97;5072611;28;20078;-67
2021/03/06 04:34:55;;;;;;;7.40;1.95;;;;;;;3.56;100.00;103500.38;5072517;28;20486;-67
2021/03/06 04:37:21;;;;;;;11.23;2.88;;;;;;;3.55;100.00;103495.97;5072571;28;20043;-67
2021/03/06 04:39:46;;;;;;;8.93;2.45;;;;;;;3.53;100.00;103506.06;5072465;28;20475;-66
2021/03/06 04:42:12;;;;;;;10.55;2.40;;;;;;;3.51;100.00;103497.22;5072282;28;20479;-67
2021/03/06 04:44:38;;;;;;;5.32;2.13;;;;;;;3.49;100.00;103504.59;5072416;28;20039;-66
2021/03/06 04:47:04;;;;;;;6.38;2.05;;;;;;;3.47;100.00;103501.16;5072407;28;20487;-66
2021/03/06 04:49:32;;;;;;;5.05;1.80;;;;;;;3.45;100.00;103503.97;5072138;28;20064;-65
2021/03/06 04:51:57;;;;;;;9.15;2.55;;;;;;;3.44;100.00;103506.81;5072227;28;20135;-62
2021/03/06 04:54:23;;;;;;;7.20;2.45;;;;;;;3.43;100.00;103511.38;5072024;28;20123;-64
2021/03/06 04:56:49;;;;;;;10.20;1.95;;;;;;;3.40;100.00;103513.47;5072049;28;20036;-64
2021/03/06 04:59:16;;;;;;;10.90;2.45;;;;;;;3.39;100.00;103511.75;5072109;28;20029;-64
2021/03/06 05:01:41;;;;;;;8.10;2.40;;;;;;;3.37;100.00;103521.84;5072024;28;20115;-63
2021/03/06 05:04:07;;;;;;;9.18;1.88;;;;;;;3.35;100.00;103521.13;5053961;28;20136;-63
2021/03/06 05:06:33;;;;;;;5.70;1.58;;;;;;;3.33;100.00;103527.50;5071952;28;20098;-65
2021/03/06 05:08:58;;;;;;;7.20;1.85;;;;;;;3.32;100.00;103525.78;5071904;28;20039;-64
2021/03/06 05:11:24;;;;;;;6.93;1.80;;;;;;;3.31;100.00;103528.63;5071842;28;20064;-64
2021/03/06 05:13:49;;;;;;;9.23;1.85;;;;;;;3.29;100.00;103520.63;5053729;28;20048;-64
2021/03/06 05:16:15;;;;;;;7.03;1.80;;;;;;;3.28;100.00;103518.91;5071758;28;20119;-64
2021/03/06 05:18:42;;;;;;;8.35;2.08;;;;;;;3.28;100.00;103529.72;5071783;28;20044;-63
2021/03/06 05:21:08;;;;;;;4.90;2.20;;;;;;;3.29;100.00;103520.63;5071800;28;20397;-65
2021/03/06 05:23:33;;;;;;;8.40;1.50;;;;;;;3.29;100.00;103533.28;5071548;28;20032;-62
2021/03/06 05:25:59;;;;;;;7.63;2.05;;;;;;;3.29;100.00;103531.44;5071521;28;20045;-65
2021/03/06 05:28:25;;;;;;;8.65;1.98;;;;;;;3.28;100.00;103540.53;5071468;28;20445;-64
2021/03/06 05:30:51;;;;;;;8.68;1.60;;;;;;;3.27;100.00;103537.94;5071447;28;20036;-63
2021/03/06 05:33:17;;;;;;;8.45;1.65;;;;;;;3.27;100.00;103533.41;5071340;28;20036;-63
2021/03/06 05:35:44;;;;;;;6.13;2.38;;;;;;;3.26;100.00;103542.50;5053487;28;20047;-64
2021/03/06 05:38:11;;;;;;;4.18;1.38;;;;;;;3.26;100.00;103536.25;5071359;28;20482;-64
2021/03/06 05:40:47;;;;;;;5.95;1.48;;;;;;;3.24;100.00;103539.06;5071355;28;20041;-62
2021/03/06 05:43:14;;;;;;;4.50;1.48;;;;;;;3.23;100.00;103537.34;5071118;28;20037;-65
2021/03/06 05:45:43;;;;;;;5.93;1.17;;;;;;;3.22;100.00;103543.75;5071174;28;20131;-64
2021/03/06 05:48:10;;;;;;;9.57;1.30;;;;;;;3.21;100.00;103536.63;5071192;28;20062;-62
2021/03/06 05:50:35;;;;;;;5.20;1.67;;;;;;;3.22;100.00;103538.34;5071224;28;20049;-63
2021/03/06 05:53:01;;;;;;;5.90;1.30;;;;;;;3.22;100.00;103535.63;5071392;28;20047;-64
2021/03/06 05:55:28;;;;;;;5.00;1.30;;;;;;;3.22;100.00;103541.03;5052909;28;20486;-63
2021/03/06 05:57:55;;;;;;;8.25;1.80;;;;;;;3.20;100.00;103532.22;5070890;28;20047;-64
2021/03/06 06:00:25;;;;;;;7.97;1.23;;;;;;;3.19;100.00;103546.72;5071002;28;20036;-62
2021/03/06 06:02:57;;;;;;;6.82;1.70;;;;;;;3.18;100.00;103545.00;5052749;28;20032;-63
2021/03/06 06:05:24;;;;;;;6.75;1.40;;;;;;;3.15;100.00;103539.84;5070921;28;20489;-64
2021/03/06 06:07:55;;;;;;;6.65;1.20;;;;;;;3.13;100.00;103541.81;5071074;28;20028;-66
2021/03/06 06:10:21;;;;;;;6.47;1.55;;;;;;;3.12;100.00;103548.19;5070937;28;20047;-63
2021/03/06 06:12:47;;;;;;;6.03;1.48;;;;;;;3.11;100.00;103543.75;5070986;28;20040;-63
2021/03/06 06:15:14;;;;;;;6.18;1.30;;;;;;;3.10;100.00;103546.59;5071140;28;20386;-64
2021/03/06 06:17:39;;;;;;;6.45;1.63;;;;;;;3.09;100.00;103548.44;5070838;28;20395;-63
2021/03/06 06:20:07;;;;;;;5.43;1.38;;;;;;;3.08;100.00;103541.31;5070802;28;20390;-62
2021/03/06 06:22:32;;;;;;;9.52;1.85;;;;;;;3.07;100.00;103542.31;5070747;28;20430;-65
2021/03/06 06:24:58;;;;;;;6.68;1.63;;;;;;;3.07;100.00;103547.72;5070847;28;20040;-62
2021/03/06 06:27:32;;;;;;;6.15;1.30;;;;;;;3.06;100.00;103546.00;5052807;28;20369;-64
2021/03/06 06:30:09;;;;;;;7.55;1.52;;;;;;;3.05;100.00;103552.38;5070718;28;20336;-64
2021/03/06 06:32:43;;;;;;;12.27;1.48;;;;;;;3.03;100.00;103551.66;5070581;28;20471;-63
2021/03/06 06:35:14;;;;;;;5.77;1.27;;;;;;;3.03;100.00;103554.34;5070586;28;20364;-64
2021/03/06 06:37:53;;;;;;;4.22;1.27;;;;;;;3.02;100.00;103555.34;5070740;28;20036;-65
2021/03/06 06:40:22;;;;;;;11.43;1.40;;;;;;;3.01;100.00;103553.63;5070723;28;20037;-66
2021/03/06 06:42:48;;;;;;;4.95;1.50;;;;;;;2.99;100.00;103555.59;5070527;28;20058;-64
2021/03/06 06:45:16;;;;;;;8.13;1.50;;;;;;;2.98;100.00;103552.03;5070546;28;20033;-63
2021/03/06 06:47:44;;;;;;;6.22;1.25;;;;;;;2.97;100.00;103557.56;5070578;28;20032;-64
2021/03/06 06:50:11;;;;;;;7.55;1.45;;;;;;;2.97;100.00;103546.78;5070283;28;20052;-65
2021/03/06 06:52:42;;;;;;;6.53;1.38;;;;;;;2.97;100.00;103553.03;5070441;28;20048;-62
2021/03/06 06:55:10;;;;;;;6.00;1.30;;;;;;;2.97;100.00;103553.03;5070519;28;20211;-62
2021/03/06 06:57:54;;;;;;;7.57;1.60;;;;;;;2.98;100.00;103554.75;5070535;28;20036;-64
2021/03/06 07:00:20;;;;;;;7.90;1.50;;;;;;;3.00;100.00;103551.91;5070558;28;20570;-64
2021/03/06 07:02:55;;;;;;;3.30;1.50;;;;;;;3.03;100.00;103557.06;5070349;28;20047;-62
2021/03/06 07:05:40;;;;;;;7.57;1.42;;;;;;;3.07;100.00;103552.25;5070363;28;20036;-62
2021/03/06 07:08:21;;;;;;;7.03;1.50;;;;;;;3.11;100.00;103553.72;5053100;28;20517;-64
2021/03/06 07:10:47;;;;;;;14.02;2.45;;;;;;;3.15;100.00;103556.06;5074235;28;20064;-63
2021/03/06 07:13:14;;;;;;;8.80;1.20;;;;;;;3.21;100.00;103557.38;5074028;28;20470;-62
2021/03/06 07:15:41;;;;;;;8.18;2.42;;;;;;;3.24;100.00;103560.69;5074106;28;20036;-64
2021/03/06 07:18:16;;;;;;;8.32;2.17;;;;;;;3.27;100.00;103560.41;5073926;28;20041;-62
2021/03/06 07:20:42;;;;;;;6.00;1.50;;;;;;;3.33;100.00;103562.63;5073978;28;20036;-62
2021/03/06 07:23:12;;;;;;;5.70;1.40;;;;;;;3.37;100.00;103565.94;5073810;28;20040;-63
2021/03/06 07:25:38;;;;;;;8.82;2.03;;;;;;;3.45;100.00;103565.28;5073977;28;20115;-62
2021/03/06 07:28:05;;;;;;;6.78;1.67;;;;;;;3.49;100.00;103569.47;5074028;28;20171;-63
2021/03/06 07:30:31;;;;;;;4.65;1.48;;;;;;;3.55;100.00;103568.94;5073977;28;20037;-63
2021/03/06 07:33:00;;;;;;;8.75;2.10;;;;;;;3.60;100.00;103577.50;5073668;28;20036;-63
2021/03/06 07:35:26;;;;;;;8.82;1.65;;;;;;;3.65;100.00;103569.88;5073554;28;20110;-63
2021/03/06 07:37:58;;;;;;;7.15;1.50;;;;;;;3.68;100.00;103575.03;5073616;28;20045;-65
2021/03/06 07:40:32;;;;;;;10.32;1.73;;;;;;;3.70;100.00;103583.84;5073617;28;20530;-63
2021/03/06 07:43:01;;;;;;;10.35;1.42;;;;;;;3.72;100.00;103576.47;5073717;28;20044;-63
2021/03/06 07:45:28;;;;;;;6.50;1.55;;;;;;;3.75;100.00;103581.59;5073424;28;20036;-64
2021/03/06 07:48:10;;;;;;;5.63;1.63;;;;;;;3.79;100.00;103588.47;5073873;28;20086;-64
2021/03/06 07:50:42;;;;;;;8.88;1.50;;;;;;;3.84;100.00;103602.47;5073568;28;20040;-63
2021/03/06 07:53:09;;;;;;;6.35;1.83;;;;;;;3.88;100.00;103592.25;5073407;28;20028;-63
2021/03/06 07:55:36;;;;;;;7.18;1.40;;;;;;;3.90;100.00;103601.94;5073268;28;20033;-64
2021/03/06 07:58:17;;;;;;;6.50;1.38;;;;;;;3.93;100.00;103607.09;5073314;28;20064;-66
2021/03/06 08:00:54;;;;;;;4.05;1.23;;;;;;;3.96;100.00;103602.41;5073391;28;20040;-66
2021/03/06 08:03:22;;;;;;;8.45;1.88;;;;;;;3.97;100.00;103601.41;5073156;28;20043;-67
2021/03/06 08:05:49;;;;;;;7.38;1.38;;;;;;;3.99;100.00;103599.44;5073179;28;20444;-67
2021/03/06 08:08:32;;;;;;;7.63;1.48;;;;;;;4.02;100.00;103601.91;5073563;28;20040;-67
2021/03/06 08:11:09;;;;;;;11.10;2.42;;;;;;;4.07;100.00;103607.75;5073082;28;20044;-67
2021/03/06 08:13:36;;;;;;;3.17;1.02;;;;;;;4.15;100.00;103605.25;5072935;28;20040;-67
2021/03/06 08:16:23;;;;;;;6.38;1.52;;;;;;;4.29;100.00;103601.34;5073011;28;20115;-65
2021/03/06 08:19:08;;;;;;;8.20;1.30;;;;;;;4.44;100.00;103600.00;5072541;28;20048;-66
2021/03/06 08:21:49;;;;;;;3.35;1.23;;;;;;;4.53;100.00;103597.38;5073079;28;20028;-67
2021/03/06 08:24:15;;;;;;;5.82;1.45;;;;;;;4.61;100.00;103601.25;5072774;28;20036;-65
2021/03/06 08:26:53;;;;;;;6.53;1.65;;;;;;;4.67;100.00;103600.69;5072755;28;20028;-66
2021/03/06 08:29:22;;;;;;;6.90;0.90;;;;;;;4.70;100.00;103597.72;5072720;28;20047;-67
2021/03/06 08:32:08;;;;;;;5.75;1.38;;;;;;;4.74;100.00;103591.03;5072681;28;20036;-68
2021/03/06 08:34:36;;;;;;;6.35;1.05;;;;;;;4.79;100.00;103588.78;5072943;28;20379;-67
2021/03/06 08:37:14;;;;;;;7.38;1.73;;;;;;;4.80;100.00;103591.34;5072789;28;20119;-64
2021/03/06 08:39:40;;;;;;;11.88;1.40;;;;;;;4.83;100.00;103587.50;5054621;28;20123;-66
2021/03/06 08:42:06;;;;;;;9.85;1.38;;;;;;;4.84;100.00;103592.78;5072633;28;20139;-66
2021/03/06 08:44:32;;;;;;;5.82;0.90;;;;;;;4.90;100.00;103588.69;5072705;28;20044;-64
2021/03/06 08:46:57;;;;;;;9.00;1.95;;;;;;;4.93;100.00;103591.13;5072683;28;20036;-64
2021/03/06 08:49:23;;;;;;;6.72;2.15;;;;;;;4.97;100.00;103588.97;5072407;28;20052;-66
2021/03/06 08:51:51;;;;;;;10.13;1.52;;;;;;;5.04;100.00;103593.72;5072659;28;20032;-64
2021/03/06 08:54:17;;;;;;;8.10;1.83;;;;;;;5.11;100.00;103586.75;5072441;28;20047;-62
2021/03/06 08:56:42;;;;;;;3.45;1.00;;;;;;;5.23;100.00;103597.47;5072470;28;20040;-64
2021/03/06 08:59:08;;;;;;;5.78;0.90;;;;;;;5.33;100.00;103598.34;5072321;28;20510;-64
2021/03/06 09:01:38;;;;;;;14.32;1.92;;;;;;;5.48;100.00;103602.34;5036644;28;20056;-65
2021/03/06 09:04:04;;;;;;;5.88;1.05;;;;;;;5.61;100.00;103602.94;5072109;28;20036;-65
2021/03/06 09:06:41;;;;;;;7.22;1.10;;;;;;;5.71;100.00;103603.78;5071846;28;20040;-62
2021/03/06 09:09:09;;;;;;;6.03;1.10;;;;;;;5.80;100.00;103601.25;5071996;28;20493;-63
2021/03/06 09:11:59;;;;;;;5.70;2.20;;;;;;;5.87;100.00;103599.66;5072195;28;20028;-63
2021/03/06 09:14:25;;;;;;;10.30;1.55;;;;;;;5.88;100.00;103604.06;5071614;28;20065;-62
2021/03/06 09:16:51;;;;;;;6.30;1.10;;;;;;;5.87;100.00;103602.38;5071791;28;20131;-63
2021/03/06 09:19:23;;;;;;;12.45;1.27;;;;;;;5.83;100.00;103603.66;5071610;28;20040;-66
2021/03/06 09:22:04;;;;;;;8.45;1.52;;;;;;;5.88;100.00;103602.22;5071633;28;20028;-63
2021/03/06 09:24:44;;;;;;;8.73;1.60;;;;;;;5.96;100.00;103598.84;5071557;28;20032;-64
2021/03/06 09:27:10;;;;;;;6.20;1.67;;;;;;;6.00;100.00;103597.53;5071539;28;20402;-64
2021/03/06 09:29:35;;;;;;;5.28;1.50;;;;;;;6.03;100.00;103602.66;5071399;28;20045;-64
2021/03/06 09:32:01;;;;;;;9.68;1.48;;;;;;;6.08;100.00;103611.25;5070630;28;20063;-63
2021/03/06 09:34:28;;;;;;;8.02;1.33;;;;;;;6.11;100.00;103604.69;5071338;28;20052;-63
2021/03/06 09:36:53;;;;;;;8.13;1.67;;;;;;;6.18;100.00;103601.22;5071514;28;20033;-64
2021/03/06 09:39:25;;;;;;;6.30;1.88;;;;;;;6.24;100.00;103603.34;5071354;28;20055;-65
2021/03/06 09:41:52;;;;;;;7.65;2.15;;;;;;;6.33;100.00;103602.47;5071548;28;20147;-65
2021/03/06 09:44:19;;;;;;;6.43;1.77;;;;;;;6.41;100.00;103606.31;5071139;28;20036;-66
2021/03/06 09:46:45;;;;;;;6.55;2.17;;;;;;;6.47;100.00;103597.59;5071183;28;20644;-63
2021/03/06 09:49:16;;;;;;;6.28;3.03;;;;;;;6.50;100.00;103600.00;5071219;28;20066;-62
2021/03/06 09:51:46;;;;;;;8.13;2.45;;;;;;;6.53;100.00;103594.28;5071206;28;20051;-64
2021/03/06 09:54:14;;;;;;;7.13;2.35;;;;;;;6.59;100.00;103596.41;5053041;28;20045;-62
2021/03/06 09:56:54;;;;;;;7.63;2.83;;;;;;;6.71;100.00;103592.50;5071157;28;20042;-63
2021/03/06 09:59:21;;;;;;;9.40;3.00;;;;;;;6.81;100.00;103582.47;5071145;28;20611;-62
2021/03/06 10:01:47;;;;;;;7.22;3.10;;;;;;;6.91;100.00;103585.09;5071287;28;20474;-63
2021/03/06 10:04:15;;;;;;;12.77;4.18;;;;;;;7.11;100.00;103583.13;5070812;28;20035;-65
2021/03/06 10:06:44;;;;;;;8.55;3.25;;;;;;;7.23;100.00;103592.81;5071038;28;20102;-64
2021/03/06 10:09:11;;;;;;;6.85;3.63;;;;;;;7.41;100.00;103588.25;5071047;28;20029;-64
2021/03/06 10:12:04;;;;;;;8.43;3.75;;;;;;;7.53;100.00;103581.56;5070857;28;20032;-63
2021/03/06 10:14:30;;;;;;;7.82;3.78;;;;;;;7.66;100.00;103574.91;5070908;28;20465;-63
2021/03/06 10:16:58;;;;;;;15.77;5.35;;;;;;;7.77;100.00;103580.94;5070822;28;20127;-64
2021/03/06 10:19:27;;;;;;;11.32;4.90;;;;;;;7.90;100.00;103572.38;5070825;28;20028;-65
2021/03/06 10:22:06;;;;;;;12.25;5.13;;;;;;;8.00;100.00;103569.59;5070506;28;20040;-65
2021/03/06 10:24:51;;;;;;;8.70;4.90;;;;;;;8.00;96.35;103564.13;5070882;28;20028;-62
2021/03/06 10:27:18;;;;;;;10.43;5.18;;;;;;;8.07;98.17;103563.31;5070673;28;20036;-62
2021/03/06 10:29:43;;;;;;;6.50;4.38;;;;;;;8.11;99.58;103556.53;5070759;28;20101;-64
2021/03/06 10:32:09;;;;;;;9.30;5.68;;;;;;;8.23;99.81;103564.47;5070567;28;20498;-64
2021/03/06 10:34:36;;;;;;;9.23;4.63;;;;;;;8.31;97.25;103561.78;5070557;28;20503;-65
2021/03/06 10:37:12;;;;;;;11.13;5.07;;;;;;;8.42;97.29;103558.81;5070608;28;20502;-64
2021/03/06 10:39:56;;;;;;;10.25;4.68;;;;;;;8.55;96.19;103558.38;5070656;28;20502;-64
2021/03/06 10:42:24;;;;;;;10.40;4.90;;;;;;;8.47;91.13;103556.47;5071841;28;20471;-64
2021/03/06 10:44:50;;;;;;;7.47;4.57;;;;;;;8.55;86.60;103553.78;5074722;28;20055;-65
2021/03/06 10:47:16;;;;;;;6.25;4.32;;;;;;;8.71;89.39;103559.31;5074693;28;20036;-65
2021/03/06 10:49:45;;;;;;;10.65;4.60;;;;;;;8.81;83.95;103558.31;5074246;28;20414;-63
2021/03/06 10:52:37;;;;;;;9.77;4.05;;;;;;;8.93;81.62;103565.19;5074282;28;20102;-64
2021/03/06 10:55:02;;;;;;;8.52;4.20;;;;;;;8.89;81.86;103545.59;5069661;28;20112;-65
2021/03/06 10:57:28;;;;;;;8.68;4.28;;;;;;;8.89;82.76;103558.38;5074302;28;20037;-64
2021/03/06 10:59:54;;;;;;;6.95;4.65;;;;;;;8.85;81.06;103559.69;5074434;28;20481;-63
2021/03/06 11:02:29;;;;;;;11.70;6.03;;;;;;;8.82;82.96;103565.47;5074278;28;20041;-64
2021/03/06 11:05:18;;;;;;;6.50;5.75;;;;;;;8.72;85.06;103571.94;5074167;28;20112;-66
2021/03/06 11:07:44;;;;;;;10.88;5.55;;;;;;;8.65;85.35;103565.41;5074207;28;20371;-68
2021/03/06 11:10:10;;;;;;;10.45;5.68;;;;;;;8.57;86.34;103568.09;5074188;28;20036;-66
2021/03/06 11:12:36;;;;;;;9.88;6.55;;;;;;;8.55;87.68;103559.25;5074056;28;20040;-66
2021/03/06 11:15:15;;;;;;;8.80;5.25;;;;;;;8.62;90.54;103565.75;5073944;28;20038;-66
2021/03/06 11:17:43;;;;;;;8.27;6.22;;;;;;;8.65;89.14;103565.41;5074021;28;20036;-63
2021/03/06 11:20:12;;;;;;;13.32;7.53;;;;;;;8.63;86.74;103561.16;5073800;28;20068;-64
2021/03/06 11:22:38;;;;;;;9.45;6.32;;;;;;;8.62;88.84;103560.28;5073980;28;20149;-64
2021/03/06 11:25:06;;;;;;;11.90;6.82;;;;;;;8.59;89.75;103566.06;5073731;28;20525;-65
2021/03/06 11:28:05;;;;;;;9.00;6.93;;;;;;;8.53;82.50;103561.28;5073770;28;20036;-66
2021/03/06 11:30:34;;;;;;;11.30;6.28;;;;;;;8.58;83.27;103564.38;5054836;28;20049;-65
2021/03/06 11:33:02;;;;;;;19.75;7.15;;;;;;;8.49;83.77;103565.31;5073675;28;20041;-63
2021/03/06 11:35:28;;;;;;;9.10;6.57;;;;;;;8.46;82.90;103565.66;5073374;28;20036;-64